sensor_id;sensor_type;location;lat;lon;timestamp;temperature;humidity
27384;DHT22;14851;51.166;4.760;2023-07-31T00:01:07;17.30;99.90
27384;DHT22;14851;51.166;4.760;2023-07-31T00:03:33;17.30;99.90
27384;DHT22;14851;51.166;4.760;2023-07-31T00:05:59;17.30;99.90
27384;DHT22;14851;51.166;4.760;2023-07-31T00:08:25;17.30;99.90
27384;DHT22;14851;51.166;4.760;2023-07-31T00:10:53;17.20;99.90
27384;DHT22;14851;51.166;4.760;2023-07-31T00:13:21;17.30;99.90
27384;DHT22;14851;51.166;4.760;2023-07-31T00:15:47;17.20;99.90
27384;DHT22;14851;51.166;4.760;2023-07-31T00:18:13;17.20;99.90
27384;DHT22;14851;51.166;4.760;2023-07-31T00:20:39;17.20;99.90
27384;DHT22;14851;51.166;4.760;2023-07-31T00:23:08;17.20;99.90
27384;DHT22;14851;51.166;4.760;2023-07-31T00:25:33;17.20;99.90
27384;DHT22;14851;51.166;4.760;2023-07-31T00:27:59;17.10;99.90
27384;DHT22;14851;51.166;4.760;2023-07-31T00:30:28;17.20;99.90
27384;DHT22;14851;51.166;4.760;2023-07-31T00:32:53;17.10;99.90
27384;DHT22;14851;51.166;4.760;2023-07-31T00:35:19;17.10;99.90
27384;DHT22;14851;51.166;4.760;2023-07-31T00:37:45;17.10;99.90
27384;DHT22;14851;51.166;4.760;2023-07-31T00:40:15;17.10;99.90
27384;DHT22;14851;51.166;4.760;2023-07-31T00:42:41;17.10;99.90
27384;DHT22;14851;51.166;4.760;2023-07-31T00:45:08;17.10;99.90
27384;DHT22;14851;51.166;4.760;2023-07-31T00:47:38;17.00;99.90
27384;DHT22;14851;51.166;4.760;2023-07-31T00:50:05;17.10;99.90
27384;DHT22;14851;51.166;4.760;2023-07-31T00:52:31;17.10;99.90
27384;DHT22;14851;51.166;4.760;2023-07-31T00:54:57;17.10;99.90
27384;DHT22;14851;51.166;4.760;2023-07-31T00:57:23;17.10;99.90
27384;DHT22;14851;51.166;4.760;2023-07-31T00:59:52;17.00;99.90
27384;DHT22;14851;51.166;4.760;2023-07-31T01:02:20;17.00;99.90
27384;DHT22;14851;51.166;4.760;2023-07-31T01:04:46;17.10;99.90
27384;DHT22;14851;51.166;4.760;2023-07-31T01:07:35;17.10;99.90
27384;DHT22;14851;51.166;4.760;2023-07-31T01:10:15;17.00;99.90
27384;DHT22;14851;51.166;4.760;2023-07-31T01:12:44;17.00;99.90
27384;DHT22;14851;51.166;4.760;2023-07-31T01:15:11;17.00;99.90
27384;DHT22;14851;51.166;4.760;2023-07-31T01:17:38;17.00;99.90
27384;DHT22;14851;51.166;4.760;2023-07-31T01:20:20;16.90;99.90
27384;DHT22;14851;51.166;4.760;2023-07-31T01:23:22;17.00;99.90
27384;DHT22;14851;51.166;4.760;2023-07-31T01:26:18;17.00;99.90
27384;DHT22;14851;51.166;4.760;2023-07-31T01:29:01;16.90;99.90
27384;DHT22;14851;51.166;4.760;2023-07-31T01:31:30;17.00;99.90
27384;DHT22;14851;51.166;4.760;2023-07-31T01:33:58;17.00;99.90
27384;DHT22;14851;51.166;4.760;2023-07-31T01:36:25;17.00;99.90
27384;DHT22;14851;51.166;4.760;2023-07-31T01:39:03;17.00;99.90
27384;DHT22;14851;51.166;4.760;2023-07-31T01:41:30;16.90;99.90
27384;DHT22;14851;51.166;4.760;2023-07-31T01:43:56;16.90;99.90
27384;DHT22;14851;51.166;4.760;2023-07-31T01:46:23;16.90;99.90
27384;DHT22;14851;51.166;4.760;2023-07-31T01:48:49;16.90;99.90
27384;DHT22;14851;51.166;4.760;2023-07-31T01:51:14;16.90;99.90
27384;DHT22;14851;51.166;4.760;2023-07-31T01:53:40;16.90;99.90
27384;DHT22;14851;51.166;4.760;2023-07-31T01:56:07;16.90;99.90
27384;DHT22;14851;51.166;4.760;2023-07-31T01:58:33;17.00;99.90
27384;DHT22;14851;51.166;4.760;2023-07-31T02:00:59;16.90;99.90
27384;DHT22;14851;51.166;4.760;2023-07-31T02:03:27;16.90;99.90
27384;DHT22;14851;51.166;4.760;2023-07-31T02:05:54;17.00;99.90
27384;DHT22;14851;51.166;4.760;2023-07-31T02:08:20;17.00;99.90
27384;DHT22;14851;51.166;4.760;2023-07-31T02:10:46;17.00;99.90
27384;DHT22;14851;51.166;4.760;2023-07-31T02:13:15;17.00;99.90
27384;DHT22;14851;51.166;4.760;2023-07-31T02:15:43;17.00;99.90
27384;DHT22;14851;51.166;4.760;2023-07-31T02:18:13;17.00;99.90
27384;DHT22;14851;51.166;4.760;2023-07-31T02:20:39;17.00;99.90
27384;DHT22;14851;51.166;4.760;2023-07-31T02:23:05;17.00;99.90
27384;DHT22;14851;51.166;4.760;2023-07-31T02:25:31;17.00;99.90
27384;DHT22;14851;51.166;4.760;2023-07-31T02:27:56;17.00;99.90
27384;DHT22;14851;51.166;4.760;2023-07-31T02:30:22;17.00;99.90
27384;DHT22;14851;51.166;4.760;2023-07-31T02:32:48;17.00;99.90
27384;DHT22;14851;51.166;4.760;2023-07-31T02:35:14;17.00;99.90
27384;DHT22;14851;51.166;4.760;2023-07-31T02:37:42;17.00;99.90
27384;DHT22;14851;51.166;4.760;2023-07-31T02:40:08;17.00;99.90
27384;DHT22;14851;51.166;4.760;2023-07-31T02:42:34;17.00;99.90
27384;DHT22;14851;51.166;4.760;2023-07-31T02:45:00;17.00;99.90
27384;DHT22;14851;51.166;4.760;2023-07-31T02:47:26;17.00;99.90
27384;DHT22;14851;51.166;4.760;2023-07-31T02:49:55;17.00;99.90
27384;DHT22;14851;51.166;4.760;2023-07-31T02:52:21;17.00;99.90
27384;DHT22;14851;51.166;4.760;2023-07-31T02:54:49;17.00;99.90
27384;DHT22;14851;51.166;4.760;2023-07-31T02:57:15;17.00;99.90
27384;DHT22;14851;51.166;4.760;2023-07-31T02:59:42;17.10;99.90
27384;DHT22;14851;51.166;4.760;2023-07-31T03:02:07;17.10;99.90
27384;DHT22;14851;51.166;4.760;2023-07-31T03:04:33;17.00;99.90
27384;DHT22;14851;51.166;4.760;2023-07-31T03:06:59;17.10;99.90
27384;DHT22;14851;51.166;4.760;2023-07-31T03:09:26;17.10;99.90
27384;DHT22;14851;51.166;4.760;2023-07-31T03:11:52;17.10;99.90
27384;DHT22;14851;51.166;4.760;2023-07-31T03:14:17;17.10;99.90
27384;DHT22;14851;51.166;4.760;2023-07-31T03:16:47;17.10;99.90
27384;DHT22;14851;51.166;4.760;2023-07-31T03:19:13;17.10;99.90
27384;DHT22;14851;51.166;4.760;2023-07-31T03:21:38;17.10;99.90
27384;DHT22;14851;51.166;4.760;2023-07-31T03:24:04;17.10;99.90
27384;DHT22;14851;51.166;4.760;2023-07-31T03:26:32;17.10;99.90
27384;DHT22;14851;51.166;4.760;2023-07-31T03:28:58;17.10;99.90
27384;DHT22;14851;51.166;4.760;2023-07-31T03:31:25;17.10;99.90
27384;DHT22;14851;51.166;4.760;2023-07-31T03:33:51;17.10;99.90
27384;DHT22;14851;51.166;4.760;2023-07-31T03:36:17;17.10;99.90
27384;DHT22;14851;51.166;4.760;2023-07-31T03:38:43;17.10;99.90
27384;DHT22;14851;51.166;4.760;2023-07-31T03:41:09;17.10;99.90
27384;DHT22;14851;51.166;4.760;2023-07-31T03:43:36;17.10;99.90
27384;DHT22;14851;51.166;4.760;2023-07-31T03:46:02;17.10;99.90
27384;DHT22;14851;51.166;4.760;2023-07-31T03:48:28;17.10;99.90
27384;DHT22;14851;51.166;4.760;2023-07-31T03:50:56;17.10;99.90
27384;DHT22;14851;51.166;4.760;2023-07-31T03:53:22;17.00;99.90
27384;DHT22;14851;51.166;4.760;2023-07-31T03:55:50;17.10;99.90
27384;DHT22;14851;51.166;4.760;2023-07-31T03:58:18;17.10;99.90
27384;DHT22;14851;51.166;4.760;2023-07-31T04:00:45;17.10;99.90
27384;DHT22;14851;51.166;4.760;2023-07-31T04:03:11;17.10;99.90
27384;DHT22;14851;51.166;4.760;2023-07-31T04:05:38;17.10;99.90
27384;DHT22;14851;51.166;4.760;2023-07-31T04:08:10;17.10;99.90
27384;DHT22;14851;51.166;4.760;2023-07-31T04:10:35;17.10;99.90
27384;DHT22;14851;51.166;4.760;2023-07-31T04:13:01;17.10;99.90
27384;DHT22;14851;51.166;4.760;2023-07-31T04:15:27;17.10;99.90
27384;DHT22;14851;51.166;4.760;2023-07-31T04:17:55;17.10;99.90
27384;DHT22;14851;51.166;4.760;2023-07-31T04:20:23;17.10;99.90
27384;DHT22;14851;51.166;4.760;2023-07-31T04:22:49;17.10;99.90
27384;DHT22;14851;51.166;4.760;2023-07-31T04:25:17;17.10;99.90
27384;DHT22;14851;51.166;4.760;2023-07-31T04:27:45;17.10;99.90
27384;DHT22;14851;51.166;4.760;2023-07-31T04:30:13;17.10;99.90
27384;DHT22;14851;51.166;4.760;2023-07-31T04:32:39;17.10;99.90
27384;DHT22;14851;51.166;4.760;2023-07-31T04:35:05;17.00;99.90
27384;DHT22;14851;51.166;4.760;2023-07-31T04:37:31;17.00;99.90
27384;DHT22;14851;51.166;4.760;2023-07-31T04:39:57;17.00;99.90
27384;DHT22;14851;51.166;4.760;2023-07-31T04:42:23;17.00;99.90
27384;DHT22;14851;51.166;4.760;2023-07-31T04:44:49;17.00;99.90
27384;DHT22;14851;51.166;4.760;2023-07-31T04:47:14;17.00;99.90
27384;DHT22;14851;51.166;4.760;2023-07-31T04:49:40;17.00;99.90
27384;DHT22;14851;51.166;4.760;2023-07-31T04:52:06;17.00;99.90
27384;DHT22;14851;51.166;4.760;2023-07-31T04:54:32;17.00;99.90
27384;DHT22;14851;51.166;4.760;2023-07-31T04:57:00;17.00;99.90
27384;DHT22;14851;51.166;4.760;2023-07-31T04:59:29;16.90;99.90
27384;DHT22;14851;51.166;4.760;2023-07-31T05:01:55;16.90;99.90
27384;DHT22;14851;51.166;4.760;2023-07-31T05:04:21;16.90;99.90
27384;DHT22;14851;51.166;4.760;2023-07-31T05:06:50;16.90;99.90
27384;DHT22;14851;51.166;4.760;2023-07-31T05:09:16;16.90;99.90
27384;DHT22;14851;51.166;4.760;2023-07-31T05:11:44;16.90;99.90
27384;DHT22;14851;51.166;4.760;2023-07-31T05:14:10;16.90;99.90
27384;DHT22;14851;51.166;4.760;2023-07-31T05:16:36;17.00;99.90
27384;DHT22;14851;51.166;4.760;2023-07-31T05:19:02;17.00;99.90
27384;DHT22;14851;51.166;4.760;2023-07-31T05:21:30;16.90;99.90
27384;DHT22;14851;51.166;4.760;2023-07-31T05:23:56;17.00;99.90
27384;DHT22;14851;51.166;4.760;2023-07-31T05:26:24;16.90;99.90
27384;DHT22;14851;51.166;4.760;2023-07-31T05:28:50;16.90;99.90
27384;DHT22;14851;51.166;4.760;2023-07-31T05:31:16;17.00;99.90
27384;DHT22;14851;51.166;4.760;2023-07-31T05:33:41;16.90;99.90
27384;DHT22;14851;51.166;4.760;2023-07-31T05:36:09;16.90;99.90
27384;DHT22;14851;51.166;4.760;2023-07-31T05:38:35;16.90;99.90
27384;DHT22;14851;51.166;4.760;2023-07-31T05:41:02;16.90;99.90
27384;DHT22;14851;51.166;4.760;2023-07-31T05:43:28;16.90;99.90
27384;DHT22;14851;51.166;4.760;2023-07-31T05:46:00;16.90;99.90
27384;DHT22;14851;51.166;4.760;2023-07-31T05:48:30;16.90;99.90
27384;DHT22;14851;51.166;4.760;2023-07-31T05:51:00;16.90;99.90
27384;DHT22;14851;51.166;4.760;2023-07-31T05:53:26;16.90;99.90
27384;DHT22;14851;51.166;4.760;2023-07-31T05:55:52;16.90;99.90
27384;DHT22;14851;51.166;4.760;2023-07-31T05:58:18;16.90;99.90
27384;DHT22;14851;51.166;4.760;2023-07-31T06:00:46;16.90;99.90
27384;DHT22;14851;51.166;4.760;2023-07-31T06:03:13;16.90;99.90
27384;DHT22;14851;51.166;4.760;2023-07-31T06:05:42;16.90;99.90
27384;DHT22;14851;51.166;4.760;2023-07-31T06:08:08;16.90;99.90
27384;DHT22;14851;51.166;4.760;2023-07-31T06:10:34;16.90;99.90
27384;DHT22;14851;51.166;4.760;2023-07-31T06:13:01;16.90;99.90
27384;DHT22;14851;51.166;4.760;2023-07-31T06:15:27;16.90;99.90
27384;DHT22;14851;51.166;4.760;2023-07-31T06:17:55;16.90;99.90
27384;DHT22;14851;51.166;4.760;2023-07-31T06:20:21;16.90;99.90
27384;DHT22;14851;51.166;4.760;2023-07-31T06:22:50;16.90;99.90
27384;DHT22;14851;51.166;4.760;2023-07-31T06:25:18;16.90;99.90
27384;DHT22;14851;51.166;4.760;2023-07-31T06:27:47;16.90;99.90
27384;DHT22;14851;51.166;4.760;2023-07-31T06:30:13;16.90;99.90
27384;DHT22;14851;51.166;4.760;2023-07-31T06:32:38;16.90;99.90
27384;DHT22;14851;51.166;4.760;2023-07-31T06:35:06;16.90;99.90
27384;DHT22;14851;51.166;4.760;2023-07-31T06:37:32;16.90;99.90
27384;DHT22;14851;51.166;4.760;2023-07-31T06:39:58;17.00;99.90
27384;DHT22;14851;51.166;4.760;2023-07-31T06:42:24;16.90;99.90
27384;DHT22;14851;51.166;4.760;2023-07-31T06:44:51;16.90;99.90
27384;DHT22;14851;51.166;4.760;2023-07-31T06:47:16;17.00;99.90
27384;DHT22;14851;51.166;4.760;2023-07-31T06:49:42;17.00;99.90
27384;DHT22;14851;51.166;4.760;2023-07-31T06:52:10;17.10;99.90
27384;DHT22;14851;51.166;4.760;2023-07-31T06:54:36;17.10;99.90
27384;DHT22;14851;51.166;4.760;2023-07-31T06:57:03;17.10;99.90
27384;DHT22;14851;51.166;4.760;2023-07-31T06:59:31;17.00;99.90
27384;DHT22;14851;51.166;4.760;2023-07-31T07:02:00;17.00;99.90
27384;DHT22;14851;51.166;4.760;2023-07-31T07:04:29;17.10;99.90
27384;DHT22;14851;51.166;4.760;2023-07-31T07:06:55;17.10;99.90
27384;DHT22;14851;51.166;4.760;2023-07-31T07:09:21;17.10;99.90
27384;DHT22;14851;51.166;4.760;2023-07-31T07:11:47;17.10;99.90
27384;DHT22;14851;51.166;4.760;2023-07-31T07:14:12;17.20;99.90
27384;DHT22;14851;51.166;4.760;2023-07-31T07:16:38;17.10;99.90
27384;DHT22;14851;51.166;4.760;2023-07-31T07:19:07;17.20;99.90
27384;DHT22;14851;51.166;4.760;2023-07-31T07:21:33;17.10;99.90
27384;DHT22;14851;51.166;4.760;2023-07-31T07:23:59;17.10;99.90
27384;DHT22;14851;51.166;4.760;2023-07-31T07:26:25;17.10;99.90
27384;DHT22;14851;51.166;4.760;2023-07-31T07:28:51;17.20;99.90
27384;DHT22;14851;51.166;4.760;2023-07-31T07:31:17;17.20;99.90
27384;DHT22;14851;51.166;4.760;2023-07-31T07:33:44;17.20;99.90
27384;DHT22;14851;51.166;4.760;2023-07-31T07:36:12;17.10;99.90
27384;DHT22;14851;51.166;4.760;2023-07-31T07:38:38;17.10;99.90
27384;DHT22;14851;51.166;4.760;2023-07-31T07:41:04;17.20;99.90
27384;DHT22;14851;51.166;4.760;2023-07-31T07:43:31;17.20;99.90
27384;DHT22;14851;51.166;4.760;2023-07-31T07:45:57;17.10;99.90
27384;DHT22;14851;51.166;4.760;2023-07-31T07:48:23;17.10;99.90
27384;DHT22;14851;51.166;4.760;2023-07-31T07:50:52;17.20;99.90
27384;DHT22;14851;51.166;4.760;2023-07-31T07:53:21;17.10;99.90
27384;DHT22;14851;51.166;4.760;2023-07-31T07:55:46;17.20;99.90
27384;DHT22;14851;51.166;4.760;2023-07-31T07:58:15;17.20;99.90
27384;DHT22;14851;51.166;4.760;2023-07-31T08:00:41;17.10;99.90
27384;DHT22;14851;51.166;4.760;2023-07-31T08:03:10;17.20;99.90
27384;DHT22;14851;51.166;4.760;2023-07-31T08:05:40;17.20;99.90
27384;DHT22;14851;51.166;4.760;2023-07-31T08:08:08;17.20;99.90
27384;DHT22;14851;51.166;4.760;2023-07-31T08:10:34;17.20;99.90
27384;DHT22;14851;51.166;4.760;2023-07-31T08:12:59;17.30;99.90
27384;DHT22;14851;51.166;4.760;2023-07-31T08:15:25;17.30;99.90
27384;DHT22;14851;51.166;4.760;2023-07-31T08:17:54;17.40;99.90
27384;DHT22;14851;51.166;4.760;2023-07-31T08:20:20;17.40;99.90
27384;DHT22;14851;51.166;4.760;2023-07-31T08:22:47;17.40;99.90
27384;DHT22;14851;51.166;4.760;2023-07-31T08:25:13;17.40;99.90
27384;DHT22;14851;51.166;4.760;2023-07-31T08:27:42;17.60;99.90
27384;DHT22;14851;51.166;4.760;2023-07-31T08:30:08;17.60;99.90
27384;DHT22;14851;51.166;4.760;2023-07-31T08:32:35;17.70;99.90
27384;DHT22;14851;51.166;4.760;2023-07-31T08:35:04;17.80;99.90
27384;DHT22;14851;51.166;4.760;2023-07-31T08:37:30;17.70;99.90
27384;DHT22;14851;51.166;4.760;2023-07-31T08:39:56;17.80;99.90
27384;DHT22;14851;51.166;4.760;2023-07-31T08:42:25;17.80;99.90
27384;DHT22;14851;51.166;4.760;2023-07-31T08:44:52;17.80;99.90
27384;DHT22;14851;51.166;4.760;2023-07-31T08:47:21;18.00;99.90
27384;DHT22;14851;51.166;4.760;2023-07-31T08:49:47;18.00;99.90
27384;DHT22;14851;51.166;4.760;2023-07-31T08:52:14;18.10;99.90
27384;DHT22;14851;51.166;4.760;2023-07-31T08:54:40;18.10;99.90
27384;DHT22;14851;51.166;4.760;2023-07-31T08:57:10;18.10;99.90
27384;DHT22;14851;51.166;4.760;2023-07-31T08:59:37;18.10;99.90
27384;DHT22;14851;51.166;4.760;2023-07-31T09:02:06;18.10;99.90
27384;DHT22;14851;51.166;4.760;2023-07-31T09:04:35;18.10;99.90
27384;DHT22;14851;51.166;4.760;2023-07-31T09:07:03;18.20;99.90
27384;DHT22;14851;51.166;4.760;2023-07-31T09:09:32;18.20;99.90
27384;DHT22;14851;51.166;4.760;2023-07-31T09:11:58;18.10;99.90
27384;DHT22;14851;51.166;4.760;2023-07-31T09:14:25;18.20;99.90
27384;DHT22;14851;51.166;4.760;2023-07-31T09:16:58;18.30;99.90
27384;DHT22;14851;51.166;4.760;2023-07-31T09:19:35;18.30;99.90
27384;DHT22;14851;51.166;4.760;2023-07-31T09:22:05;18.30;99.90
27384;DHT22;14851;51.166;4.760;2023-07-31T09:24:33;18.30;99.90
27384;DHT22;14851;51.166;4.760;2023-07-31T09:27:00;18.40;99.90
27384;DHT22;14851;51.166;4.760;2023-07-31T09:29:28;18.50;99.90
27384;DHT22;14851;51.166;4.760;2023-07-31T09:31:58;18.50;99.90
27384;DHT22;14851;51.166;4.760;2023-07-31T09:34:36;18.40;99.90
27384;DHT22;14851;51.166;4.760;2023-07-31T09:37:05;18.50;99.90
27384;DHT22;14851;51.166;4.760;2023-07-31T09:39:45;18.60;99.90
27384;DHT22;14851;51.166;4.760;2023-07-31T09:42:11;18.60;99.90
27384;DHT22;14851;51.166;4.760;2023-07-31T09:44:40;18.60;99.90
27384;DHT22;14851;51.166;4.760;2023-07-31T09:47:06;18.70;99.90
27384;DHT22;14851;51.166;4.760;2023-07-31T09:49:34;18.70;99.90
27384;DHT22;14851;51.166;4.760;2023-07-31T09:52:13;18.70;99.90
27384;DHT22;14851;51.166;4.760;2023-07-31T09:54:41;18.70;99.90
27384;DHT22;14851;51.166;4.760;2023-07-31T09:57:08;18.70;99.90
27384;DHT22;14851;51.166;4.760;2023-07-31T09:59:35;18.80;99.90
27384;DHT22;14851;51.166;4.760;2023-07-31T10:02:01;18.70;99.90
27384;DHT22;14851;51.166;4.760;2023-07-31T10:04:30;18.80;99.90
27384;DHT22;14851;51.166;4.760;2023-07-31T10:06:57;18.80;99.90
27384;DHT22;14851;51.166;4.760;2023-07-31T10:09:26;19.00;99.90
27384;DHT22;14851;51.166;4.760;2023-07-31T10:12:01;19.00;99.90
27384;DHT22;14851;51.166;4.760;2023-07-31T10:14:27;18.90;99.90
27384;DHT22;14851;51.166;4.760;2023-07-31T10:16:55;18.90;99.90
27384;DHT22;14851;51.166;4.760;2023-07-31T10:19:22;18.80;99.90
27384;DHT22;14851;51.166;4.760;2023-07-31T10:21:52;18.80;99.90
27384;DHT22;14851;51.166;4.760;2023-07-31T10:24:27;18.80;99.90
27384;DHT22;14851;51.166;4.760;2023-07-31T10:26:57;18.90;99.90
27384;DHT22;14851;51.166;4.760;2023-07-31T10:29:25;19.00;99.90
27384;DHT22;14851;51.166;4.760;2023-07-31T10:31:57;19.00;99.90
27384;DHT22;14851;51.166;4.760;2023-07-31T10:34:24;19.00;99.90
27384;DHT22;14851;51.166;4.760;2023-07-31T10:42:33;19.10;99.90
27384;DHT22;14851;51.166;4.760;2023-07-31T10:45:02;19.10;99.90
27384;DHT22;14851;51.166;4.760;2023-07-31T10:47:28;19.20;99.90
27384;DHT22;14851;51.166;4.760;2023-07-31T10:50:20;19.20;99.90
27384;DHT22;14851;51.166;4.760;2023-07-31T10:52:54;19.20;99.90
27384;DHT22;14851;51.166;4.760;2023-07-31T10:55:33;19.20;99.90
27384;DHT22;14851;51.166;4.760;2023-07-31T10:58:11;19.10;99.90
27384;DHT22;14851;51.166;4.760;2023-07-31T11:00:42;19.10;99.90
27384;DHT22;14851;51.166;4.760;2023-07-31T11:03:18;19.10;99.90
27384;DHT22;14851;51.166;4.760;2023-07-31T11:08:20;19.10;99.90
27384;DHT22;14851;51.166;4.760;2023-07-31T11:10:49;19.10;99.90
27384;DHT22;14851;51.166;4.760;2023-07-31T11:13:16;19.20;99.90
27384;DHT22;14851;51.166;4.760;2023-07-31T11:15:42;19.20;99.90
27384;DHT22;14851;51.166;4.760;2023-07-31T11:18:11;19.20;99.90
27384;DHT22;14851;51.166;4.760;2023-07-31T11:20:38;19.20;99.90
27384;DHT22;14851;51.166;4.760;2023-07-31T11:23:07;19.20;99.90
27384;DHT22;14851;51.166;4.760;2023-07-31T11:25:34;19.30;99.90
27384;DHT22;14851;51.166;4.760;2023-07-31T11:28:08;19.30;99.90
27384;DHT22;14851;51.166;4.760;2023-07-31T11:30:34;19.50;99.90
27384;DHT22;14851;51.166;4.760;2023-07-31T11:33:07;19.50;99.90
27384;DHT22;14851;51.166;4.760;2023-07-31T11:35:40;19.60;99.90
27384;DHT22;14851;51.166;4.760;2023-07-31T11:38:33;19.60;99.90
27384;DHT22;14851;51.166;4.760;2023-07-31T11:41:05;19.60;99.90
27384;DHT22;14851;51.166;4.760;2023-07-31T11:43:31;19.60;99.90
27384;DHT22;14851;51.166;4.760;2023-07-31T11:46:02;19.50;99.90
27384;DHT22;14851;51.166;4.760;2023-07-31T11:48:37;19.60;99.90
27384;DHT22;14851;51.166;4.760;2023-07-31T11:51:05;19.60;99.90
27384;DHT22;14851;51.166;4.760;2023-07-31T11:56:05;19.60;99.90
27384;DHT22;14851;51.166;4.760;2023-07-31T11:58:34;19.60;99.90
27384;DHT22;14851;51.166;4.760;2023-07-31T12:01:00;19.60;99.90
27384;DHT22;14851;51.166;4.760;2023-07-31T12:03:27;19.60;99.90
27384;DHT22;14851;51.166;4.760;2023-07-31T12:05:54;19.60;99.90
27384;DHT22;14851;51.166;4.760;2023-07-31T12:08:24;19.60;99.90
27384;DHT22;14851;51.166;4.760;2023-07-31T12:10:52;19.60;99.90
27384;DHT22;14851;51.166;4.760;2023-07-31T12:13:26;19.60;99.90
27384;DHT22;14851;51.166;4.760;2023-07-31T12:15:59;19.60;99.90
27384;DHT22;14851;51.166;4.760;2023-07-31T12:18:27;19.70;99.90
27384;DHT22;14851;51.166;4.760;2023-07-31T12:20:59;19.80;99.90
27384;DHT22;14851;51.166;4.760;2023-07-31T12:23:30;19.80;99.90
27384;DHT22;14851;51.166;4.760;2023-07-31T12:28:45;19.80;99.90
27384;DHT22;14851;51.166;4.760;2023-07-31T12:31:16;19.90;99.90
27384;DHT22;14851;51.166;4.760;2023-07-31T12:33:47;19.90;99.90
27384;DHT22;14851;51.166;4.760;2023-07-31T12:36:20;19.90;99.90
27384;DHT22;14851;51.166;4.760;2023-07-31T12:38:46;19.90;99.90
27384;DHT22;14851;51.166;4.760;2023-07-31T12:41:13;19.90;99.90
27384;DHT22;14851;51.166;4.760;2023-07-31T12:43:40;19.90;99.90
27384;DHT22;14851;51.166;4.760;2023-07-31T12:46:07;19.90;99.90
27384;DHT22;14851;51.166;4.760;2023-07-31T12:48:34;20.00;99.90
27384;DHT22;14851;51.166;4.760;2023-07-31T12:51:01;20.00;99.90
27384;DHT22;14851;51.166;4.760;2023-07-31T12:53:28;19.90;99.90
27384;DHT22;14851;51.166;4.760;2023-07-31T12:55:57;19.90;99.90
27384;DHT22;14851;51.166;4.760;2023-07-31T12:58:23;19.90;99.90
27384;DHT22;14851;51.166;4.760;2023-07-31T13:00:48;20.00;99.90
27384;DHT22;14851;51.166;4.760;2023-07-31T13:03:14;20.00;99.90
27384;DHT22;14851;51.166;4.760;2023-07-31T13:05:43;20.00;99.90
27384;DHT22;14851;51.166;4.760;2023-07-31T13:08:11;19.90;99.90
27384;DHT22;14851;51.166;4.760;2023-07-31T13:10:37;19.90;99.90
27384;DHT22;14851;51.166;4.760;2023-07-31T13:13:03;19.90;99.90
27384;DHT22;14851;51.166;4.760;2023-07-31T13:15:29;19.90;99.90
27384;DHT22;14851;51.166;4.760;2023-07-31T13:17:55;19.90;99.90
27384;DHT22;14851;51.166;4.760;2023-07-31T13:20:21;19.90;99.90
27384;DHT22;14851;51.166;4.760;2023-07-31T13:22:47;19.90;99.90
27384;DHT22;14851;51.166;4.760;2023-07-31T13:25:12;19.90;99.90
27384;DHT22;14851;51.166;4.760;2023-07-31T13:27:41;19.90;99.90
27384;DHT22;14851;51.166;4.760;2023-07-31T13:30:09;19.90;99.90
27384;DHT22;14851;51.166;4.760;2023-07-31T13:32:38;19.90;99.90
27384;DHT22;14851;51.166;4.760;2023-07-31T13:35:07;19.90;99.90
27384;DHT22;14851;51.166;4.760;2023-07-31T13:37:34;19.90;99.90
27384;DHT22;14851;51.166;4.760;2023-07-31T13:40:00;19.90;99.90
27384;DHT22;14851;51.166;4.760;2023-07-31T13:42:31;19.90;99.90
27384;DHT22;14851;51.166;4.760;2023-07-31T13:44:57;19.90;99.90
27384;DHT22;14851;51.166;4.760;2023-07-31T13:47:24;19.90;99.90
27384;DHT22;14851;51.166;4.760;2023-07-31T13:49:51;19.80;99.90
27384;DHT22;14851;51.166;4.760;2023-07-31T13:52:17;19.80;99.90
27384;DHT22;14851;51.166;4.760;2023-07-31T13:54:46;19.80;99.90
27384;DHT22;14851;51.166;4.760;2023-07-31T13:57:14;19.80;99.90
27384;DHT22;14851;51.166;4.760;2023-07-31T13:59:40;19.70;99.90
27384;DHT22;14851;51.166;4.760;2023-07-31T14:02:07;19.60;99.90
27384;DHT22;14851;51.166;4.760;2023-07-31T14:04:33;19.60;99.90
27384;DHT22;14851;51.166;4.760;2023-07-31T14:06:59;19.60;99.90
27384;DHT22;14851;51.166;4.760;2023-07-31T14:09:25;19.50;99.90
27384;DHT22;14851;51.166;4.760;2023-07-31T14:11:50;19.50;99.90
27384;DHT22;14851;51.166;4.760;2023-07-31T14:14:19;19.50;99.90
27384;DHT22;14851;51.166;4.760;2023-07-31T14:16:45;19.50;99.90
27384;DHT22;14851;51.166;4.760;2023-07-31T14:19:10;19.50;99.90
27384;DHT22;14851;51.166;4.760;2023-07-31T14:21:36;19.50;99.90
27384;DHT22;14851;51.166;4.760;2023-07-31T14:24:02;19.50;99.90
27384;DHT22;14851;51.166;4.760;2023-07-31T14:26:28;19.50;99.90
27384;DHT22;14851;51.166;4.760;2023-07-31T14:28:55;19.50;99.90
27384;DHT22;14851;51.166;4.760;2023-07-31T14:31:25;19.40;99.90
27384;DHT22;14851;51.166;4.760;2023-07-31T14:33:51;19.40;99.90
27384;DHT22;14851;51.166;4.760;2023-07-31T14:36:16;19.50;99.90
27384;DHT22;14851;51.166;4.760;2023-07-31T14:38:44;19.40;99.90
27384;DHT22;14851;51.166;4.760;2023-07-31T14:41:12;19.40;99.90
27384;DHT22;14851;51.166;4.760;2023-07-31T14:43:40;19.40;99.90
27384;DHT22;14851;51.166;4.760;2023-07-31T14:46:06;19.30;99.90
27384;DHT22;14851;51.166;4.760;2023-07-31T14:48:35;19.40;99.90
27384;DHT22;14851;51.166;4.760;2023-07-31T14:51:02;19.30;99.90
27384;DHT22;14851;51.166;4.760;2023-07-31T14:53:28;19.30;99.90
27384;DHT22;14851;51.166;4.760;2023-07-31T14:55:53;19.20;99.90
27384;DHT22;14851;51.166;4.760;2023-07-31T14:58:21;19.10;99.90
27384;DHT22;14851;51.166;4.760;2023-07-31T15:00:47;19.00;99.90
27384;DHT22;14851;51.166;4.760;2023-07-31T15:03:13;19.00;99.90
27384;DHT22;14851;51.166;4.760;2023-07-31T15:05:38;18.90;99.90
27384;DHT22;14851;51.166;4.760;2023-07-31T15:08:04;18.90;99.90
27384;DHT22;14851;51.166;4.760;2023-07-31T15:10:30;18.90;99.90
27384;DHT22;14851;51.166;4.760;2023-07-31T15:12:56;18.80;99.90
27384;DHT22;14851;51.166;4.760;2023-07-31T15:15:22;18.90;99.90
27384;DHT22;14851;51.166;4.760;2023-07-31T15:17:49;18.90;99.90
27384;DHT22;14851;51.166;4.760;2023-07-31T15:20:15;18.80;99.90
27384;DHT22;14851;51.166;4.760;2023-07-31T15:22:43;18.80;99.90
27384;DHT22;14851;51.166;4.760;2023-07-31T15:25:09;18.80;99.90
27384;DHT22;14851;51.166;4.760;2023-07-31T15:27:40;18.80;99.90
27384;DHT22;14851;51.166;4.760;2023-07-31T15:30:06;18.70;99.90
27384;DHT22;14851;51.166;4.760;2023-07-31T15:32:32;18.70;99.90
27384;DHT22;14851;51.166;4.760;2023-07-31T15:34:58;18.70;99.90
27384;DHT22;14851;51.166;4.760;2023-07-31T15:37:24;18.70;99.90
27384;DHT22;14851;51.166;4.760;2023-07-31T15:39:52;18.70;99.90
27384;DHT22;14851;51.166;4.760;2023-07-31T15:42:18;18.70;99.90
27384;DHT22;14851;51.166;4.760;2023-07-31T15:44:43;18.70;99.90
27384;DHT22;14851;51.166;4.760;2023-07-31T15:47:09;18.60;99.90